Portada
METAR-TAF:

METAR-TAF

Aeropuertos :

Aeropuerto de Sylt

Westerland, Alemania

latitud: 54-55N, longitud: 008-21E, altitud: 16 m

Observación

El informe se hizo hace 31 minutos, a las 00:50 UTC
Viento 14 kt del sur-sureste
Temperatura 16°C
Humedad 88%
Presión 995 hPa
Visibilidad 10 km o más

METAR: EDXW 240050Z AUTO 16014KT 9999 // SCT075/// BKN094/// OVC150/// 16/14 Q0995

Hora: 03:21 (01:21 UTC)

Pronóstico

El informe se hizo hace 8 horas y 21 minutos, a las 17:00 UTC
Pronóstico válido del 23 a las 18 UTC al 23 a las 21 UTC
Viento 11 kt del sur
Visibilidad 10 km o más
sin nubes por debajo de 1500 m y sin presencia de cumulonimbus.
Probabilidad 30% :
Temporalmente
del 23 a las 18 UTC al 23 a las 21 UTC
Nubes dispersas a una altura de 3000 ft, Cumulonimbus.
tormenta, lluvia

TAF: EDXW 231700Z 2318/2321 18011KT CAVOK PROB30 TEMPO 2318/2321 TSRA SCT030CB

Observaciones y pronósticos meteorológicos de más de 4000 aeropuertos (mensajes METAR y TAF).

Los puntos amarillos y rojos representan las estaciones disponibles.

Ponga el ratón en el punto deseado para ver el nombre de la estación.

Haga clic para ver las observaciones y los pronósticos meteorológicos.

Para cambiar el mapa : haga clic en los botones verdes con una cruz de color negro para hacer un zoom, en el botón verde con un guión para alejar o en las flechas verdes para mapas adyacentes.


METAR-TAF: